Time;durP1;ratioP1;P1;durP2;ratioP2;P2;SDS_P1;SDS_P2;PMS_P1;PMS_P2;Temp;Humidity;BMP_temperature;BMP_pressure;BME280_temperature;BME280_humidity;BME280_pressure;Samples;Min_cycle;Max_cycle;Signal;HPM_P1;HPM_P2
2022/11/19 00:00:24;;;;;;;3.77;3.47;;;20.20;44.30;;;;;;4990612;28;20771;-64
2022/11/19 00:02:53;;;;;;;3.80;3.37;;;20.20;44.20;;;;;;4994087;28;20266;-65
2022/11/19 00:05:19;;;;;;;3.20;3.00;;;20.10;44.20;;;;;;4987576;28;20228;-65
2022/11/19 00:07:45;;;;;;;5.70;3.40;;;20.20;44.30;;;;;;4976091;28;20480;-65
2022/11/19 00:10:10;;;;;;;3.70;3.40;;;20.20;44.30;;;;;;4979535;28;20235;-65
2022/11/19 00:12:54;;;;;;;4.90;3.40;;;20.10;44.20;;;;;;4982546;28;20664;-64
2022/11/19 00:15:20;;;;;;;3.40;3.20;;;20.10;44.20;;;;;;4978745;28;20237;-64
2022/11/19 00:17:46;;;;;;;3.50;3.30;;;20.10;44.20;;;;;;4977536;28;20448;-64
2022/11/19 00:20:13;;;;;;;3.77;3.47;;;20.20;45.10;;;;;;4985469;28;20941;-65
2022/11/19 00:22:40;;;;;;;3.90;3.70;;;20.10;44.20;;;;;;4981800;28;20776;-64
2022/11/19 00:25:06;;;;;;;3.70;3.47;;;20.20;44.30;;;;;;4980193;28;20424;-64
2022/11/19 00:27:32;;;;;;;3.50;3.30;;;20.10;44.20;;;;;;4992018;28;20480;-64
2022/11/19 00:29:57;;;;;;;3.27;2.97;;;20.10;44.30;;;;;;5012639;28;20499;-65
2022/11/19 00:32:23;;;;;;;3.80;3.60;;;20.10;44.20;;;;;;4981311;28;20234;-64
2022/11/19 00:34:48;;;;;;;3.50;3.30;;;20.10;44.20;;;;;;4984251;28;20231;-65
2022/11/19 00:37:14;;;;;;;3.70;3.40;;;20.10;44.20;;;;;;4981534;28;20243;-64
2022/11/19 00:39:39;;;;;;;4.10;3.87;;;20.10;44.30;;;;;;4987216;28;20224;-63
2022/11/19 00:42:05;;;;;;;3.90;3.70;;;20.10;44.20;;;;;;4983612;28;20236;-64
2022/11/19 00:44:30;;;;;;;3.73;3.43;;;20.10;44.30;;;;;;4976658;28;20269;-64
2022/11/19 00:46:56;;;;;;;3.50;3.30;;;20.10;44.30;;;;;;4977779;28;20560;-65
2022/11/19 00:49:21;;;;;;;3.63;3.43;;;20.10;44.20;;;;;;4983253;28;20763;-64
2022/11/19 00:51:47;;;;;;;3.20;3.00;;;20.10;44.20;;;;;;4987279;28;20224;-64
2022/11/19 00:54:12;;;;;;;3.93;3.70;;;20.10;44.20;;;;;;4983371;28;20225;-65
2022/11/19 00:56:38;;;;;;;4.07;3.70;;;20.10;44.30;;;;;;5008521;28;20400;-64
2022/11/19 00:59:04;;;;;;;3.80;3.60;;;20.10;44.30;;;;;;4997668;28;20315;-65
2022/11/19 01:01:29;;;;;;;4.03;3.73;;;20.10;44.30;;;;;;4992941;28;21010;-65
2022/11/19 01:03:55;;;;;;;3.27;3.07;;;20.10;44.30;;;;;;5002209;28;20210;-65
2022/11/19 01:06:22;;;;;;;3.50;3.30;;;20.10;44.30;;;;;;4995312;28;20284;-65
2022/11/19 01:08:49;;;;;;;3.13;2.93;;;20.10;44.20;;;;;;4995888;28;20745;-64
2022/11/19 01:11:21;;;;;;;3.40;3.20;;;20.10;44.20;;;;;;4980083;28;20476;-64
2022/11/19 01:13:47;;;;;;;3.90;3.60;;;20.10;44.20;;;;;;4978703;28;20469;-65
2022/11/19 01:16:37;;;;;;;3.80;3.50;;;20.10;44.30;;;;;;4986822;28;20457;-64
2022/11/19 01:19:05;;;;;;;3.40;3.20;;;20.10;44.30;;;;;;4996677;28;20450;-65
2022/11/19 01:21:32;;;;;;;3.40;3.20;;;20.10;44.30;;;;;;4995772;28;20455;-64
2022/11/19 01:23:59;;;;;;;3.47;3.27;;;20.10;44.30;;;;;;4992235;28;20456;-65
2022/11/19 01:26:25;;;;;;;3.00;2.80;;;20.10;44.20;;;;;;4996499;28;20976;-65
2022/11/19 01:28:51;;;;;;;3.70;3.47;;;20.10;44.30;;;;;;4992899;28;20544;-64
2022/11/19 01:31:20;;;;;;;4.27;3.93;;;20.10;44.20;;;;;;4992124;28;20486;-65
2022/11/19 01:33:45;;;;;;;3.23;3.03;;;20.10;44.20;;;;;;4990565;28;21028;-64
2022/11/19 01:36:20;;;;;;;3.13;2.93;;;20.10;44.20;;;;;;4995220;28;20470;-65
2022/11/19 01:38:49;;;;;;;3.13;2.93;;;20.10;44.20;;;;;;4988458;28;20251;-64
2022/11/19 01:41:23;;;;;;;3.60;3.30;;;20.10;44.20;;;;;;4990805;28;20490;-64
2022/11/19 01:43:50;;;;;;;3.10;2.90;;;20.10;44.20;;;;;;4974475;28;20473;-64
2022/11/19 01:46:19;;;;;;;3.53;3.23;;;20.10;44.20;;;;;;4984175;28;20457;-64
2022/11/19 01:48:52;;;;;;;3.00;2.80;;;20.10;44.20;;;;;;4980603;28;20585;-64
2022/11/19 01:51:24;;;;;;;3.43;3.23;;;20.10;44.20;;;;;;4978500;28;20474;-64
2022/11/19 01:53:52;;;;;;;2.90;2.70;;;20.10;44.20;;;;;;4975752;28;20470;-65
2022/11/19 01:56:21;;;;;;;3.50;3.30;;;20.10;44.20;;;;;;4975232;28;20472;-63
2022/11/19 01:58:52;;;;;;;3.23;2.97;;;20.10;44.20;;;;;;4976835;28;21184;-64
2022/11/19 02:01:18;;;;;;;2.73;2.50;;;20.10;44.20;;;;;;4993569;28;20497;-64
2022/11/19 02:03:44;;;;;;;3.00;2.80;;;20.10;44.20;;;;;;4990243;28;20560;-64
2022/11/19 02:06:10;;;;;;;3.73;3.43;;;20.10;44.30;;;;;;4992621;28;20546;-64
2022/11/19 02:08:41;;;;;;;3.07;2.80;;;20.10;44.20;;;;;;4990927;28;20455;-64
2022/11/19 02:11:28;;;;;;;2.90;2.60;;;20.10;44.20;;;;;;4981534;28;21165;-63
2022/11/19 02:13:53;;;;;;;2.80;2.60;;;20.10;44.20;;;;;;5000329;28;20512;-64
2022/11/19 02:16:49;;;;;;;2.90;2.70;;;20.10;44.20;;;;;;4994223;28;20549;-64
2022/11/19 02:19:59;;;;;;;3.20;3.00;;;20.10;44.20;;;;;;5000487;28;20860;-64
2022/11/19 02:23:02;;;;;;;2.50;2.30;;;20.10;44.20;;;;;;4974206;28;20541;-65
2022/11/19 02:25:44;;;;;;;2.80;2.60;;;20.10;44.20;;;;;;4977262;28;20469;-65
2022/11/19 02:28:23;;;;;;;3.30;3.10;;;20.10;44.20;;;;;;4973748;28;20473;-64
2022/11/19 02:30:51;;;;;;;2.90;2.70;;;20.00;44.10;;;;;;4976151;28;20470;-65
2022/11/19 02:33:39;;;;;;;2.73;2.63;;;20.00;44.10;;;;;;4980783;28;20457;-64
2022/11/19 02:36:40;;;;;;;3.20;3.00;;;20.00;44.10;;;;;;4986500;28;20984;-64
2022/11/19 02:39:40;;;;;;;3.43;3.13;;;20.10;44.20;;;;;;4992222;28;20418;-64
2022/11/19 02:42:21;;;;;;;2.57;2.47;;;20.10;44.20;;;;;;4991438;28;20464;-64
2022/11/19 02:45:01;;;;;;;3.00;2.80;;;20.00;44.10;;;;;;5002692;28;20507;-64
2022/11/19 02:47:57;;;;;;;2.83;2.63;;;20.00;44.20;;;;;;4996178;28;20530;-64
2022/11/19 02:50:30;;;;;;;3.37;3.17;;;20.00;44.20;;;;;;4993407;28;20461;-65
2022/11/19 02:52:57;;;;;;;2.53;2.33;;;20.00;44.10;;;;;;4982669;28;20532;-63
2022/11/19 02:55:23;;;;;;;2.73;2.53;;;20.00;44.20;;;;;;4992052;28;20466;-64
2022/11/19 02:58:04;;;;;;;2.50;2.40;;;20.00;44.10;;;;;;4992686;28;20466;-64
2022/11/19 03:06:23;;;;;;;2.63;2.53;;;20.00;44.10;;;;;;4997602;28;20449;-64
2022/11/19 03:08:49;;;;;;;2.90;2.70;;;20.00;44.10;;;;;;4995731;28;20472;-64
2022/11/19 03:11:23;;;;;;;3.03;2.83;;;20.00;44.10;;;;;;4994109;28;20448;-65
2022/11/19 03:17:03;;;;;;;6.03;2.60;;;20.00;44.10;;;;;;4979313;28;20912;-65
2022/11/19 03:19:45;;;;;;;2.53;2.33;;;20.00;44.10;;;;;;4975819;28;20466;-65
2022/11/19 03:22:26;;;;;;;2.63;2.50;;;20.00;44.90;;;;;;4973507;28;20944;-63
2022/11/19 03:25:04;;;;;;;2.80;2.60;;;20.00;44.10;;;;;;4977001;28;20465;-64
2022/11/19 03:27:46;;;;;;;2.93;2.73;;;20.00;44.00;;;;;;4987035;28;20469;-65
2022/11/19 03:30:14;;;;;;;2.30;2.20;;;20.00;44.00;;;;;;4991932;28;21027;-64
2022/11/19 03:32:45;;;;;;;2.37;2.27;;;20.00;44.00;;;;;;4993856;28;21160;-64
2022/11/19 03:35:19;;;;;;;3.07;2.77;;;20.00;44.00;;;;;;4976630;28;20512;-64
2022/11/19 03:37:49;;;;;;;2.93;2.70;;;20.00;44.10;;;;;;4980792;28;20531;-64
2022/11/19 03:40:17;;;;;;;3.23;2.90;;;20.00;44.00;;;;;;4976794;28;21028;-64
2022/11/19 03:42:45;;;;;;;2.60;2.50;;;20.00;44.00;;;;;;4979567;28;20816;-66
2022/11/19 03:45:19;;;;;;;2.37;2.20;;;20.00;44.00;;;;;;4999680;28;20464;-64
2022/11/19 03:47:48;;;;;;;2.83;2.63;;;20.00;44.00;;;;;;5002699;28;20615;-65
2022/11/19 03:50:26;;;;;;;2.67;2.57;;;20.00;44.00;;;;;;5004753;28;20445;-65
2022/11/19 03:52:52;;;;;;;3.00;2.77;;;20.00;43.90;;;;;;5002615;28;20439;-64
2022/11/19 03:55:20;;;;;;;3.03;2.83;;;20.00;44.00;;;;;;4982674;28;20435;-64
2022/11/19 03:57:45;;;;;;;2.20;2.10;;;20.00;44.00;;;;;;4986241;28;20226;-65
2022/11/19 04:00:11;;;;;;;2.40;2.20;;;20.00;44.00;;;;;;5000808;28;20465;-65
2022/11/19 04:02:37;;;;;;;2.50;2.40;;;20.00;44.00;;;;;;5000774;28;20550;-64
2022/11/19 04:05:03;;;;;;;3.10;2.90;;;20.00;43.90;;;;;;4998608;28;20426;-64
2022/11/19 04:07:28;;;;;;;2.27;2.10;;;20.00;43.90;;;;;;5001345;28;20864;-64
2022/11/19 04:09:54;;;;;;;2.50;2.37;;;20.00;43.90;;;;;;4998091;28;20219;-65
2022/11/19 04:12:22;;;;;;;2.90;2.70;;;20.00;43.90;;;;;;4989692;28;20311;-64
2022/11/19 04:14:48;;;;;;;2.83;2.63;;;20.00;43.90;;;;;;4987211;28;20245;-64
2022/11/19 04:17:16;;;;;;;3.07;2.87;;;20.00;43.80;;;;;;4976224;28;20968;-61
2022/11/19 04:19:41;;;;;;;2.63;2.43;;;20.00;43.80;;;;;;4981857;28;20950;-61
2022/11/19 04:22:07;;;;;;;2.40;2.30;;;20.00;43.80;;;;;;4993245;28;20946;-62
2022/11/19 04:24:32;;;;;;;2.80;2.60;;;20.00;43.80;;;;;;4987802;28;20233;-63
2022/11/19 04:26:58;;;;;;;2.43;2.33;;;20.00;43.80;;;;;;4981859;28;20605;-65
2022/11/19 04:29:24;;;;;;;3.03;2.83;;;20.00;43.80;;;;;;4984539;28;20294;-64
2022/11/19 04:31:49;;;;;;;3.20;3.00;;;20.00;43.80;;;;;;4978444;28;20243;-63
2022/11/19 04:34:15;;;;;;;3.10;2.90;;;20.00;43.80;;;;;;4980402;28;20231;-64
2022/11/19 04:36:41;;;;;;;2.90;2.70;;;20.00;43.80;;;;;;4988226;28;20226;-63
2022/11/19 04:39:07;;;;;;;3.60;3.40;;;20.00;43.80;;;;;;4985455;28;20219;-65
2022/11/19 04:41:34;;;;;;;3.10;2.90;;;20.00;43.80;;;;;;4985267;28;20216;-64
2022/11/19 04:43:59;;;;;;;2.60;2.50;;;20.00;43.80;;;;;;4985110;28;20563;-65
2022/11/19 04:46:25;;;;;;;2.60;2.40;;;20.00;43.80;;;;;;4982950;28;20536;-64
2022/11/19 04:48:51;;;;;;;2.70;2.50;;;20.00;43.80;;;;;;4983343;28;20231;-64
2022/11/19 04:51:16;;;;;;;2.90;2.70;;;20.00;43.80;;;;;;4988956;28;20320;-64
2022/11/19 04:53:42;;;;;;;2.90;2.70;;;20.00;43.80;;;;;;4997615;28;20298;-64
2022/11/19 04:56:08;;;;;;;2.50;2.40;;;20.00;44.60;;;;;;5000012;28;20790;-64
2022/11/19 04:58:34;;;;;;;3.00;2.70;;;20.00;43.80;;;;;;4997409;28;20717;-64
2022/11/19 05:00:59;;;;;;;2.83;2.63;;;20.00;43.70;;;;;;4987730;28;20463;-63
2022/11/19 05:03:25;;;;;;;3.20;3.00;;;20.00;43.80;;;;;;4990382;28;20604;-64
2022/11/19 05:05:51;;;;;;;2.93;2.73;;;20.00;43.60;;;;;;4980252;28;20260;-64
2022/11/19 05:08:16;;;;;;;2.87;2.67;;;20.00;43.70;;;;;;4979563;28;20239;-64
2022/11/19 05:10:43;;;;;;;2.60;2.40;;;20.00;43.60;;;;;;4975999;28;20712;-63
2022/11/19 05:13:09;;;;;;;3.17;2.97;;;20.00;43.60;;;;;;4979891;28;20251;-64
2022/11/19 05:15:34;;;;;;;2.60;2.50;;;20.00;43.60;;;;;;4981777;28;20944;-64
2022/11/19 05:18:00;;;;;;;2.90;2.70;;;20.00;43.50;;;;;;4991077;28;20242;-65
2022/11/19 05:20:25;;;;;;;3.23;3.03;;;20.10;43.60;;;;;;4997233;28;20613;-63
2022/11/19 05:22:51;;;;;;;3.10;2.90;;;20.00;44.30;;;;;;5001341;28;20600;-64
2022/11/19 05:25:16;;;;;;;2.80;2.60;;;20.00;43.60;;;;;;4987085;28;20271;-65
2022/11/19 05:27:42;;;;;;;3.10;2.90;;;20.10;43.60;;;;;;4983748;28;20417;-64
2022/11/19 05:30:08;;;;;;;3.43;3.20;;;20.10;43.60;;;;;;4982800;28;20702;-65
2022/11/19 05:32:35;;;;;;;3.20;3.00;;;20.00;43.50;;;;;;4983394;28;20229;-64
2022/11/19 05:35:01;;;;;;;2.90;2.70;;;20.10;43.60;;;;;;4978004;28;20443;-64
2022/11/19 05:37:27;;;;;;;3.40;3.20;;;20.10;43.50;;;;;;4990801;28;20489;-64
2022/11/19 05:39:52;;;;;;;2.60;2.50;;;20.10;43.60;;;;;;4986977;28;20579;-63
2022/11/19 05:42:18;;;;;;;3.33;3.00;;;20.10;43.50;;;;;;4982393;28;20230;-64
2022/11/19 05:44:43;;;;;;;3.43;3.23;;;20.10;43.50;;;;;;4980791;28;20248;-66
2022/11/19 05:47:09;;;;;;;2.40;2.30;;;20.10;43.50;;;;;;4982717;28;20264;-64
2022/11/19 05:49:34;;;;;;;3.10;2.90;;;20.10;43.50;;;;;;4976130;28;20228;-65
2022/11/19 05:52:00;;;;;;;2.87;2.70;;;20.10;43.50;;;;;;4975211;28;23411;-64
2022/11/19 05:54:25;;;;;;;3.20;3.00;;;20.00;43.40;;;;;;4999063;28;20235;-64
2022/11/19 05:56:51;;;;;;;2.83;2.70;;;20.10;43.50;;;;;;4982246;28;20224;-64
2022/11/19 05:59:16;;;;;;;3.30;3.10;;;20.10;43.50;;;;;;4979730;28;20319;-64
2022/11/19 06:01:42;;;;;;;3.57;3.20;;;20.10;43.40;;;;;;4983720;28;20238;-64
2022/11/19 06:04:09;;;;;;;2.63;2.53;;;20.10;43.40;;;;;;4983199;28;20774;-64
2022/11/19 06:06:35;;;;;;;3.10;2.90;;;20.10;43.40;;;;;;4992968;28;20235;-64
2022/11/19 06:09:01;;;;;;;3.63;3.43;;;20.10;43.50;;;;;;4994725;28;20465;-64
2022/11/19 06:14:10;;;;;;;3.40;3.20;;;20.10;43.40;;;;;;4973887;28;20270;-64
2022/11/19 06:16:36;;;;;;;3.63;3.43;;;20.10;43.40;;;;;;4983307;28;20824;-64
2022/11/19 06:19:01;;;;;;;2.83;2.73;;;20.10;43.40;;;;;;4977042;28;20215;-65
2022/11/19 06:21:27;;;;;;;3.13;3.00;;;20.10;43.30;;;;;;4985340;28;20209;-64
2022/11/19 06:23:52;;;;;;;3.20;3.00;;;20.10;43.30;;;;;;4978477;28;20208;-64
2022/11/19 06:26:26;;;;;;;3.47;3.17;;;20.10;43.30;;;;;;4981441;28;20224;-64
2022/11/19 06:28:51;;;;;;;3.20;3.00;;;20.10;43.30;;;;;;4992115;28;20262;-64
2022/11/19 06:31:18;;;;;;;3.10;2.77;;;20.10;43.30;;;;;;4978414;28;20537;-64
2022/11/19 06:33:43;;;;;;;3.20;3.00;;;20.10;43.20;;;;;;4978969;28;20709;-64
2022/11/19 06:36:09;;;;;;;2.63;2.50;;;20.10;43.30;;;;;;4988415;28;20444;-64
2022/11/19 06:38:35;;;;;;;3.43;3.23;;;20.10;43.20;;;;;;4992614;28;20227;-64
2022/11/19 06:41:00;;;;;;;3.47;3.27;;;20.10;43.30;;;;;;4983859;28;20250;-65
2022/11/19 06:43:26;;;;;;;3.67;3.47;;;20.10;43.30;;;;;;4981739;28;20685;-64
2022/11/19 06:45:51;;;;;;;3.33;3.10;;;20.10;43.20;;;;;;4995618;28;20216;-65
2022/11/19 06:48:17;;;;;;;2.90;2.70;;;20.10;43.20;;;;;;4994819;28;20235;-65
2022/11/19 06:50:46;;;;;;;3.10;2.90;;;20.10;43.20;;;;;;4992232;28;20234;-64
2022/11/19 06:53:12;;;;;;;3.00;2.80;;;20.10;43.20;;;;;;4977828;28;20310;-64
2022/11/19 06:55:38;;;;;;;3.00;2.80;;;20.10;43.20;;;;;;4983496;28;21430;-64
2022/11/19 06:58:05;;;;;;;3.23;3.03;;;20.10;43.20;;;;;;4985426;28;20275;-66
2022/11/19 07:00:32;;;;;;;3.03;2.83;;;20.10;43.20;;;;;;4981384;28;20506;-64
2022/11/19 07:02:58;;;;;;;2.37;2.27;;;20.10;43.20;;;;;;4996202;28;20949;-64
2022/11/19 07:05:24;;;;;;;3.43;3.23;;;20.10;43.20;;;;;;4994088;28;20456;-62
2022/11/19 07:07:49;;;;;;;3.30;3.10;;;20.10;43.90;;;;;;4975980;28;20980;-64
2022/11/19 07:10:15;;;;;;;3.30;3.10;;;20.10;43.10;;;;;;4977283;28;20232;-65
2022/11/19 07:12:41;;;;;;;3.10;2.90;;;20.10;43.10;;;;;;4981979;28;20330;-65
2022/11/19 07:15:07;;;;;;;3.50;3.30;;;20.10;43.00;;;;;;4994422;28;20636;-64
2022/11/19 07:17:32;;;;;;;3.27;2.97;;;20.20;43.20;;;;;;4992282;28;20833;-63
2022/11/19 07:19:58;;;;;;;3.30;3.10;;;20.20;43.00;;;;;;4992191;28;20511;-64
2022/11/19 07:22:23;;;;;;;3.17;3.00;;;20.20;43.00;;;;;;4993634;28;20734;-63
2022/11/19 07:24:49;;;;;;;4.03;3.00;;;20.20;43.40;;;;;;4998214;28;20215;-63
2022/11/19 07:27:15;;;;;;;3.20;3.00;;;20.20;43.00;;;;;;4988089;28;20282;-64
2022/11/19 07:29:40;;;;;;;3.13;2.93;;;20.20;43.00;;;;;;4993474;28;20215;-63
2022/11/19 07:32:06;;;;;;;3.23;3.03;;;20.20;43.10;;;;;;4990042;28;20455;-63
2022/11/19 07:34:32;;;;;;;3.40;3.10;;;20.20;43.00;;;;;;4976420;28;20631;-63
2022/11/19 07:36:57;;;;;;;3.43;3.23;;;20.20;43.00;;;;;;4984502;28;20220;-63
2022/11/19 07:39:23;;;;;;;3.40;3.20;;;20.20;43.00;;;;;;4982488;28;20579;-66
2022/11/19 07:44:32;;;;;;;4.10;3.90;;;20.20;43.00;;;;;;4975746;28;20345;-66
2022/11/19 07:46:58;;;;;;;3.03;2.83;;;20.20;43.00;;;;;;4973263;28;20561;-64
2022/11/19 07:49:24;;;;;;;3.43;3.23;;;20.20;43.00;;;;;;4977703;28;20230;-64
2022/11/19 07:51:51;;;;;;;3.30;3.10;;;20.20;43.00;;;;;;4979698;28;20932;-64
2022/11/19 07:54:16;;;;;;;2.90;2.70;;;20.10;42.90;;;;;;4974396;28;20473;-63
2022/11/19 07:56:42;;;;;;;3.80;3.60;;;20.10;42.80;;;;;;4978750;28;20450;-65
2022/11/19 07:59:07;;;;;;;3.33;3.13;;;20.10;42.90;;;;;;4978722;28;21008;-65
2022/11/19 08:01:33;;;;;;;3.70;3.50;;;20.10;42.90;;;;;;4973836;28;20220;-63
2022/11/19 08:03:59;;;;;;;3.50;3.30;;;20.10;42.90;;;;;;4975936;28;21120;-64
2022/11/19 08:06:26;;;;;;;3.80;3.60;;;20.10;42.90;;;;;;4972014;28;20251;-64
2022/11/19 08:08:54;;;;;;;3.50;3.30;;;20.10;42.90;;;;;;4975443;28;20242;-64
2022/11/19 08:11:20;;;;;;;3.87;3.67;;;20.10;42.90;;;;;;4975053;28;20445;-64
2022/11/19 08:13:45;;;;;;;3.40;3.20;;;20.10;42.90;;;;;;4982856;28;20971;-64
2022/11/19 08:18:10;;;;;;;3.80;3.60;;;20.10;42.90;;;;;;4998761;28;20215;-63
2022/11/19 08:19:01;;;;;;;3.30;3.10;;;20.10;43.00;;;;;;4977292;28;20215;-62
2022/11/19 08:21:26;;;;;;;3.17;3.00;;;20.10;43.00;;;;;;4975969;28;21091;-62
2022/11/19 08:23:52;;;;;;;3.77;3.57;;;20.10;42.90;;;;;;4978109;28;20482;-63
2022/11/19 08:26:17;;;;;;;3.53;3.23;;;20.10;42.90;;;;;;4975819;28;20216;-63
2022/11/19 08:28:43;;;;;;;3.97;3.77;;;20.10;42.90;;;;;;4983423;28;20294;-65
2022/11/19 08:31:08;;;;;;;6.10;3.87;;;20.10;42.90;;;;;;4973423;28;20671;-63
2022/11/19 08:33:35;;;;;;;6.23;4.10;;;20.10;42.90;;;;;;4972372;28;20231;-63
2022/11/19 08:36:01;;;;;;;4.27;3.97;;;20.10;42.80;;;;;;4985376;28;20216;-64
2022/11/19 08:38:26;;;;;;;4.50;4.20;;;20.10;42.90;;;;;;4986030;28;20470;-64
2022/11/19 08:42:58;;;;;;;4.73;3.93;;;20.10;42.90;;;;;;4999331;28;20660;-65
2022/11/19 08:43:39;;;;;;;4.97;3.87;;;20.10;42.90;;;;;;4982780;28;20225;-66
2022/11/19 08:46:05;;;;;;;4.20;3.90;;;20.10;42.90;;;;;;4992142;28;20443;-65
2022/11/19 08:48:31;;;;;;;3.70;3.33;;;20.10;42.90;;;;;;4981943;28;20255;-63
2022/11/19 08:50:57;;;;;;;5.53;3.60;;;20.10;42.90;;;;;;4993623;28;20527;-64
2022/11/19 08:53:22;;;;;;;5.80;4.20;;;20.10;42.90;;;;;;4985488;28;20443;-66
2022/11/19 08:55:51;;;;;;;8.93;4.43;;;20.10;42.90;;;;;;4978958;28;20224;-64
2022/11/19 08:58:16;;;;;;;9.87;4.33;;;20.10;42.80;;;;;;4997874;28;20242;-65
2022/11/19 09:00:42;;;;;;;4.90;4.50;;;20.10;42.80;;;;;;4985892;28;20454;-65
2022/11/19 09:03:08;;;;;;;4.03;3.73;;;20.10;42.80;;;;;;4979754;28;20246;-64
2022/11/19 09:05:34;;;;;;;4.40;3.80;;;20.10;42.80;;;;;;4993555;28;20426;-65
2022/11/19 09:07:59;;;;;;;4.33;4.03;;;20.10;42.80;;;;;;4999472;28;20770;-64
2022/11/19 09:10:25;;;;;;;4.70;4.40;;;20.10;42.90;;;;;;5001612;28;20273;-64
2022/11/19 09:12:51;;;;;;;10.03;4.30;;;20.10;42.80;;;;;;5000264;28;20691;-62
2022/11/19 09:15:17;;;;;;;4.27;3.97;;;20.10;42.80;;;;;;5000236;28;20220;-64
2022/11/19 09:17:43;;;;;;;4.60;4.30;;;20.10;42.90;;;;;;4979967;28;20461;-66
2022/11/19 09:20:09;;;;;;;4.83;4.43;;;20.10;42.90;;;;;;4981210;28;20411;-66
2022/11/19 09:22:34;;;;;;;4.60;4.30;;;20.10;42.90;;;;;;5000418;28;21040;-65
2022/11/19 09:25:00;;;;;;;4.27;3.97;;;20.10;42.90;;;;;;4983327;28;20959;-65
2022/11/19 09:27:26;;;;;;;4.30;4.00;;;20.10;42.90;;;;;;4981328;28;20684;-65
2022/11/19 09:29:51;;;;;;;4.60;4.20;;;20.10;42.80;;;;;;4981456;28;20230;-65
2022/11/19 09:32:17;;;;;;;4.87;4.43;;;20.10;42.90;;;;;;4984323;28;20208;-65
2022/11/19 09:34:42;;;;;;;5.07;4.50;;;20.10;42.90;;;;;;4980154;28;20258;-65
2022/11/19 09:37:08;;;;;;;4.63;4.33;;;20.10;42.90;;;;;;4984196;28;20223;-65
2022/11/19 09:39:34;;;;;;;4.80;4.53;;;20.10;42.80;;;;;;4998291;28;20281;-65
2022/11/19 09:42:10;;;;;;;4.40;4.03;;;20.10;42.90;;;;;;4993933;28;20540;-66
2022/11/19 09:44:45;;;;;;;4.07;3.77;;;20.10;42.90;;;;;;4983820;28;20597;-65
2022/11/19 09:47:38;;;;;;;4.00;3.80;;;20.10;42.80;;;;;;5000301;28;20442;-65
2022/11/19 09:50:13;;;;;;;3.80;3.60;;;20.10;42.80;;;;;;5001077;28;20915;-65
2022/11/19 09:52:57;;;;;;;3.97;3.77;;;20.10;42.90;;;;;;5012493;28;20449;-65
2022/11/19 09:55:38;;;;;;;4.20;3.93;;;20.10;42.90;;;;;;4996012;28;20510;-66
2022/11/19 09:58:12;;;;;;;4.40;4.10;;;20.10;42.90;;;;;;4984020;28;20547;-66
2022/11/19 10:00:37;;;;;;;4.40;4.10;;;20.10;42.90;;;;;;4996459;28;20448;-65
2022/11/19 10:03:22;;;;;;;4.40;4.10;;;20.10;42.90;;;;;;4995775;28;20493;-66
2022/11/19 10:06:12;;;;;;;5.00;4.60;;;20.10;42.90;;;;;;4984057;28;20242;-65
2022/11/19 10:08:41;;;;;;;4.47;4.17;;;20.10;42.90;;;;;;4977743;28;20965;-64
2022/11/19 10:11:13;;;;;;;4.30;4.10;;;20.10;42.90;;;;;;4987466;28;20450;-65
2022/11/19 10:14:09;;;;;;;4.30;4.00;;;20.10;42.90;;;;;;5001771;28;20757;-65
2022/11/19 10:17:17;;;;;;;4.33;4.03;;;20.10;42.80;;;;;;4995997;28;20958;-65
2022/11/19 10:19:55;;;;;;;4.57;4.30;;;20.10;42.80;;;;;;4986974;28;20527;-67
2022/11/19 10:22:47;;;;;;;4.77;4.50;;;20.10;42.80;;;;;;4986901;28;20432;-66
2022/11/19 10:25:25;;;;;;;4.70;4.33;;;20.10;42.80;;;;;;4999739;28;20459;-66
2022/11/19 10:27:55;;;;;;;4.40;4.10;;;20.10;42.90;;;;;;4997925;28;20560;-66
2022/11/19 10:30:27;;;;;;;4.70;4.40;;;20.10;42.80;;;;;;4985793;28;20460;-66
2022/11/19 10:33:04;;;;;;;4.33;4.03;;;20.10;42.80;;;;;;4982197;28;20461;-65
2022/11/19 10:35:35;;;;;;;4.60;4.30;;;20.10;42.80;;;;;;4985736;28;20453;-65
2022/11/19 10:38:05;;;;;;;4.30;4.10;;;20.00;42.70;;;;;;4998204;28;20465;-66
2022/11/19 10:40:44;;;;;;;4.93;4.63;;;20.00;42.70;;;;;;5001310;28;20416;-66
2022/11/19 10:43:45;;;;;;;4.10;3.80;;;20.10;42.80;;;;;;4998988;28;20540;-66
2022/11/19 10:46:12;;;;;;;4.40;4.20;;;20.10;42.80;;;;;;4988360;28;20560;-66
2022/11/19 10:48:42;;;;;;;4.27;4.00;;;20.00;42.70;;;;;;4985515;28;20425;-65
2022/11/19 10:51:22;;;;;;;4.60;4.30;;;20.00;42.70;;;;;;4983172;28;20428;-66
2022/11/19 10:53:49;;;;;;;4.83;4.53;;;20.00;42.70;;;;;;4999397;28;20423;-65
2022/11/19 10:56:20;;;;;;;4.63;4.33;;;20.00;42.60;;;;;;5002286;28;20458;-65
2022/11/19 10:58:56;;;;;;;4.40;4.00;;;20.10;42.80;;;;;;5002162;28;20513;-65
2022/11/19 11:01:30;;;;;;;4.90;4.50;;;20.00;42.70;;;;;;4982073;28;20488;-65
2022/11/19 11:04:21;;;;;;;4.43;4.13;;;20.00;42.70;;;;;;4979751;28;20458;-65
2022/11/19 11:06:53;;;;;;;5.43;4.13;;;20.00;42.70;;;;;;5000381;28;20516;-64
2022/11/19 11:09:40;;;;;;;5.13;4.60;;;20.00;42.70;;;;;;4996211;28;20461;-66
2022/11/19 11:15:23;;;;;;;4.50;3.97;;;20.10;42.80;;;;;;4997726;28;20458;-65
2022/11/19 11:18:10;;;;;;;3.70;3.50;;;20.00;42.70;;;;;;4995737;28;20468;-66
2022/11/19 11:20:38;;;;;;;4.07;3.87;;;20.00;42.70;;;;;;5001231;28;20933;-65
2022/11/19 11:23:10;;;;;;;4.00;3.80;;;20.00;42.70;;;;;;4998979;28;20604;-66
2022/11/19 11:25:37;;;;;;;4.60;4.30;;;20.00;42.70;;;;;;4992793;28;21044;-65
2022/11/19 11:28:14;;;;;;;3.87;3.47;;;20.10;42.90;;;;;;4988504;28;20461;-65
2022/11/19 11:30:57;;;;;;;4.27;3.97;;;20.10;42.80;;;;;;4985664;28;20504;-66
2022/11/19 11:33:38;;;;;;;3.53;3.33;;;20.10;42.80;;;;;;4979608;28;20842;-66
2022/11/19 11:36:08;;;;;;;4.30;4.00;;;20.10;42.80;;;;;;4976580;28;20446;-66
2022/11/19 11:38:41;;;;;;;3.40;3.20;;;20.10;42.90;;;;;;4991653;28;20465;-66
2022/11/19 11:41:13;;;;;;;4.27;3.97;;;20.10;42.90;;;;;;4996455;28;20499;-66
2022/11/19 11:44:00;;;;;;;4.37;4.17;;;20.10;43.00;;;;;;4994079;28;21230;-66
2022/11/19 11:46:41;;;;;;;3.80;3.50;;;20.10;43.10;;;;;;4988080;28;20519;-65
2022/11/19 11:49:20;;;;;;;3.93;3.60;;;20.10;43.00;;;;;;4980513;28;20484;-65
2022/11/19 11:51:53;;;;;;;3.97;3.67;;;20.10;43.10;;;;;;4980026;28;20433;-65
2022/11/19 11:54:20;;;;;;;4.47;4.17;;;20.10;43.10;;;;;;4977854;28;20500;-65
2022/11/19 11:56:46;;;;;;;3.80;3.60;;;20.10;43.10;;;;;;4982632;28;20453;-65
2022/11/19 11:59:13;;;;;;;3.70;3.50;;;20.10;43.10;;;;;;4981876;28;20465;-66
2022/11/19 12:01:52;;;;;;;7.60;3.50;;;20.10;43.20;;;;;;4982153;28;20457;-65
2022/11/19 12:04:17;;;;;;;3.90;3.60;;;20.10;43.20;;;;;;4991265;28;20445;-65
2022/11/19 12:07:00;;;;;;;3.63;3.43;;;20.10;43.20;;;;;;4986617;28;21083;-65
2022/11/19 12:10:02;;;;;;;3.70;3.17;;;20.10;43.20;;;;;;4981074;28;20293;-65
2022/11/19 12:12:34;;;;;;;4.10;3.80;;;20.10;43.20;;;;;;4988598;28;20548;-65
2022/11/19 12:15:15;;;;;;;4.83;3.77;;;20.10;43.30;;;;;;4988958;28;21039;-65
2022/11/19 12:17:55;;;;;;;3.60;3.30;;;20.10;43.30;;;;;;4972779;28;21145;-66
2022/11/19 12:20:57;;;;;;;3.60;3.40;;;20.10;43.30;;;;;;4975878;28;20455;-65
2022/11/19 12:23:32;;;;;;;3.63;3.43;;;20.10;43.30;;;;;;4993527;28;20464;-65
2022/11/19 12:26:20;;;;;;;3.90;3.60;;;20.10;43.40;;;;;;4999597;28;20472;-63
2022/11/19 12:29:00;;;;;;;3.93;3.50;;;20.10;43.40;;;;;;4996670;28;20465;-64
2022/11/19 12:31:50;;;;;;;4.03;3.73;;;20.10;43.40;;;;;;4985628;28;20440;-64
2022/11/19 12:34:31;;;;;;;3.67;3.47;;;20.10;43.50;;;;;;4977551;28;20492;-65
2022/11/19 12:37:03;;;;;;;3.73;3.53;;;20.10;43.50;;;;;;4982030;28;20521;-62
2022/11/19 12:39:45;;;;;;;3.37;3.13;;;20.10;43.40;;;;;;4981968;28;20585;-64
2022/11/19 12:42:32;;;;;;;3.27;3.07;;;20.10;43.50;;;;;;4991440;28;20421;-65
2022/11/19 12:45:16;;;;;;;3.30;3.10;;;20.10;43.40;;;;;;4983239;28;20479;-65
2022/11/19 12:48:06;;;;;;;3.93;3.67;;;20.10;43.50;;;;;;5003897;28;20555;-65
2022/11/19 12:50:44;;;;;;;3.43;3.23;;;20.20;43.60;;;;;;4998604;28;20459;-65
2022/11/19 12:53:31;;;;;;;3.57;3.27;;;20.20;43.70;;;;;;5001170;28;20539;-65
2022/11/19 12:56:22;;;;;;;3.50;3.30;;;20.10;43.50;;;;;;4994197;28;20546;-65
2022/11/19 12:58:57;;;;;;;3.80;3.50;;;20.10;43.60;;;;;;4991115;28;20453;-65
2022/11/19 13:01:31;;;;;;;4.27;3.97;;;20.20;43.70;;;;;;4985622;28;20464;-64
2022/11/19 13:04:07;;;;;;;3.50;3.20;;;20.10;44.00;;;;;;4989120;28;20468;-64
2022/11/19 13:06:57;;;;;;;3.67;3.37;;;20.10;43.60;;;;;;4978032;28;20460;-65
2022/11/19 13:09:42;;;;;;;3.73;3.43;;;20.10;43.60;;;;;;4980062;28;20444;-65
2022/11/19 13:12:12;;;;;;;3.43;3.23;;;20.10;43.60;;;;;;4982288;28;20560;-64
2022/11/19 13:15:01;;;;;;;3.70;3.40;;;20.10;43.60;;;;;;4986440;28;20465;-64
2022/11/19 13:17:40;;;;;;;4.00;3.70;;;20.10;43.60;;;;;;4976053;28;20466;-64
2022/11/19 13:20:26;;;;;;;4.20;3.80;;;20.10;43.60;;;;;;4977736;28;20456;-64
2022/11/19 13:22:57;;;;;;;3.60;3.40;;;20.10;43.70;;;;;;4980350;28;20463;-65
2022/11/19 13:25:27;;;;;;;3.27;3.07;;;20.10;43.70;;;;;;4985128;28;20439;-64